sensor_id;sensor_type;location;lat;lon;timestamp;P1;durP1;ratioP1;P2;durP2;ratioP2
4700;SDS011;8724;51.272;6.554;2022-11-20T00:01:37;15.33;;;12.80;;
4700;SDS011;8724;51.272;6.554;2022-11-20T00:04:05;14.83;;;13.33;;
4700;SDS011;8724;51.272;6.554;2022-11-20T00:06:33;13.87;;;12.50;;
4700;SDS011;8724;51.272;6.554;2022-11-20T00:09:02;17.43;;;12.97;;
4700;SDS011;8724;51.272;6.554;2022-11-20T00:11:31;15.97;;;13.70;;
4700;SDS011;8724;51.272;6.554;2022-11-20T00:14:00;18.07;;;14.27;;
4700;SDS011;8724;51.272;6.554;2022-11-20T00:16:30;17.43;;;14.23;;
4700;SDS011;8724;51.272;6.554;2022-11-20T00:19:01;16.20;;;13.90;;
4700;SDS011;8724;51.272;6.554;2022-11-20T00:21:30;14.27;;;12.90;;
4700;SDS011;8724;51.272;6.554;2022-11-20T00:23:59;15.37;;;12.97;;
4700;SDS011;8724;51.272;6.554;2022-11-20T00:26:28;14.80;;;13.30;;
4700;SDS011;8724;51.272;6.554;2022-11-20T00:28:57;15.00;;;12.83;;
4700;SDS011;8724;51.272;6.554;2022-11-20T00:31:26;13.90;;;12.50;;
4700;SDS011;8724;51.272;6.554;2022-11-20T00:33:55;14.90;;;13.40;;
4700;SDS011;8724;51.272;6.554;2022-11-20T00:36:26;14.90;;;13.50;;
4700;SDS011;8724;51.272;6.554;2022-11-20T00:38:56;15.57;;;13.97;;
4700;SDS011;8724;51.272;6.554;2022-11-20T00:41:26;14.00;;;11.87;;
4700;SDS011;8724;51.272;6.554;2022-11-20T00:43:56;14.40;;;12.07;;
4700;SDS011;8724;51.272;6.554;2022-11-20T00:46:25;15.47;;;13.77;;
4700;SDS011;8724;51.272;6.554;2022-11-20T00:48:55;12.73;;;11.43;;
4700;SDS011;8724;51.272;6.554;2022-11-20T00:51:25;14.93;;;13.30;;
4700;SDS011;8724;51.272;6.554;2022-11-20T00:53:54;13.70;;;12.37;;
4700;SDS011;8724;51.272;6.554;2022-11-20T00:56:26;15.20;;;12.67;;
4700;SDS011;8724;51.272;6.554;2022-11-20T00:58:55;14.60;;;13.10;;
4700;SDS011;8724;51.272;6.554;2022-11-20T01:01:26;16.47;;;14.03;;
4700;SDS011;8724;51.272;6.554;2022-11-20T01:03:56;15.60;;;13.93;;
4700;SDS011;8724;51.272;6.554;2022-11-20T01:06:29;16.10;;;13.30;;
4700;SDS011;8724;51.272;6.554;2022-11-20T01:09:00;17.13;;;14.00;;
4700;SDS011;8724;51.272;6.554;2022-11-20T01:11:30;15.17;;;13.60;;
4700;SDS011;8724;51.272;6.554;2022-11-20T01:14:00;13.90;;;12.50;;
4700;SDS011;8724;51.272;6.554;2022-11-20T01:16:31;14.47;;;12.93;;
4700;SDS011;8724;51.272;6.554;2022-11-20T01:19:01;14.30;;;12.93;;
4700;SDS011;8724;51.272;6.554;2022-11-20T01:21:33;15.03;;;13.20;;
4700;SDS011;8724;51.272;6.554;2022-11-20T01:24:03;16.77;;;14.97;;
4700;SDS011;8724;51.272;6.554;2022-11-20T01:26:35;15.83;;;14.20;;
4700;SDS011;8724;51.272;6.554;2022-11-20T01:29:04;15.93;;;14.27;;
4700;SDS011;8724;51.272;6.554;2022-11-20T01:31:34;15.13;;;13.60;;
4700;SDS011;8724;51.272;6.554;2022-11-20T01:34:04;17.53;;;15.00;;
4700;SDS011;8724;51.272;6.554;2022-11-20T01:36:35;16.27;;;14.60;;
4700;SDS011;8724;51.272;6.554;2022-11-20T01:39:04;13.33;;;12.10;;
4700;SDS011;8724;51.272;6.554;2022-11-20T01:41:35;15.87;;;14.37;;
4700;SDS011;8724;51.272;6.554;2022-11-20T01:44:21;14.33;;;12.93;;
4700;SDS011;8724;51.272;6.554;2022-11-20T01:47:10;17.20;;;14.73;;
4700;SDS011;8724;51.272;6.554;2022-11-20T01:49:42;15.30;;;13.63;;
4700;SDS011;8724;51.272;6.554;2022-11-20T01:52:18;14.33;;;12.87;;
4700;SDS011;8724;51.272;6.554;2022-11-20T01:54:49;15.67;;;14.17;;
4700;SDS011;8724;51.272;6.554;2022-11-20T01:57:20;14.77;;;13.33;;
4700;SDS011;8724;51.272;6.554;2022-11-20T01:59:51;14.17;;;12.43;;
4700;SDS011;8724;51.272;6.554;2022-11-20T02:02:24;13.80;;;12.40;;
4700;SDS011;8724;51.272;6.554;2022-11-20T02:04:54;16.47;;;13.50;;
4700;SDS011;8724;51.272;6.554;2022-11-20T02:07:27;14.40;;;12.97;;
4700;SDS011;8724;51.272;6.554;2022-11-20T02:09:56;15.73;;;13.67;;
4700;SDS011;8724;51.272;6.554;2022-11-20T02:12:24;14.10;;;12.80;;
4700;SDS011;8724;51.272;6.554;2022-11-20T02:15:10;16.67;;;13.73;;
4700;SDS011;8724;51.272;6.554;2022-11-20T02:17:40;14.80;;;13.27;;
4700;SDS011;8724;51.272;6.554;2022-11-20T02:20:09;15.43;;;13.80;;
4700;SDS011;8724;51.272;6.554;2022-11-20T02:22:41;15.40;;;13.83;;
4700;SDS011;8724;51.272;6.554;2022-11-20T02:25:20;16.33;;;14.03;;
4700;SDS011;8724;51.272;6.554;2022-11-20T02:27:49;15.90;;;14.20;;
4700;SDS011;8724;51.272;6.554;2022-11-20T02:30:18;16.73;;;14.97;;
4700;SDS011;8724;51.272;6.554;2022-11-20T02:32:46;15.20;;;13.60;;
4700;SDS011;8724;51.272;6.554;2022-11-20T02:38:08;15.07;;;13.47;;
4700;SDS011;8724;51.272;6.554;2022-11-20T02:40:39;17.00;;;13.47;;
4700;SDS011;8724;51.272;6.554;2022-11-20T02:43:07;16.10;;;14.00;;
4700;SDS011;8724;51.272;6.554;2022-11-20T02:45:36;15.70;;;14.10;;
4700;SDS011;8724;51.272;6.554;2022-11-20T02:48:05;14.20;;;12.80;;
4700;SDS011;8724;51.272;6.554;2022-11-20T02:50:36;16.70;;;14.93;;
4700;SDS011;8724;51.272;6.554;2022-11-20T02:53:06;15.93;;;14.33;;
4700;SDS011;8724;51.272;6.554;2022-11-20T02:55:34;15.87;;;14.30;;
4700;SDS011;8724;51.272;6.554;2022-11-20T02:58:04;14.53;;;13.17;;
4700;SDS011;8724;51.272;6.554;2022-11-20T03:00:32;15.47;;;13.80;;
4700;SDS011;8724;51.272;6.554;2022-11-20T03:03:04;14.80;;;13.27;;
4700;SDS011;8724;51.272;6.554;2022-11-20T03:05:32;14.60;;;13.13;;
4700;SDS011;8724;51.272;6.554;2022-11-20T03:08:00;15.80;;;13.97;;
4700;SDS011;8724;51.272;6.554;2022-11-20T03:10:28;13.87;;;12.20;;
4700;SDS011;8724;51.272;6.554;2022-11-20T03:12:56;13.23;;;11.83;;
4700;SDS011;8724;51.272;6.554;2022-11-20T03:15:26;14.20;;;12.80;;
4700;SDS011;8724;51.272;6.554;2022-11-20T03:17:54;16.40;;;14.30;;
4700;SDS011;8724;51.272;6.554;2022-11-20T03:20:24;15.43;;;13.93;;
4700;SDS011;8724;51.272;6.554;2022-11-20T03:22:53;14.70;;;13.20;;
4700;SDS011;8724;51.272;6.554;2022-11-20T03:25:25;14.13;;;12.73;;
4700;SDS011;8724;51.272;6.554;2022-11-20T03:27:53;15.20;;;13.70;;
4700;SDS011;8724;51.272;6.554;2022-11-20T03:30:21;14.90;;;13.30;;
4700;SDS011;8724;51.272;6.554;2022-11-20T03:32:57;15.00;;;13.50;;
4700;SDS011;8724;51.272;6.554;2022-11-20T03:35:26;15.63;;;13.80;;
4700;SDS011;8724;51.272;6.554;2022-11-20T03:37:54;15.47;;;13.87;;
4700;SDS011;8724;51.272;6.554;2022-11-20T03:40:22;16.00;;;13.93;;
4700;SDS011;8724;51.272;6.554;2022-11-20T03:42:50;16.90;;;14.43;;
4700;SDS011;8724;51.272;6.554;2022-11-20T03:45:19;19.77;;;16.13;;
4700;SDS011;8724;51.272;6.554;2022-11-20T03:47:47;20.17;;;15.83;;
4700;SDS011;8724;51.272;6.554;2022-11-20T03:50:17;16.80;;;15.10;;
4700;SDS011;8724;51.272;6.554;2022-11-20T03:52:45;17.10;;;15.30;;
4700;SDS011;8724;51.272;6.554;2022-11-20T03:55:13;17.87;;;15.97;;
4700;SDS011;8724;51.272;6.554;2022-11-20T03:57:41;19.13;;;17.13;;
4700;SDS011;8724;51.272;6.554;2022-11-20T04:00:10;18.07;;;16.17;;
4700;SDS011;8724;51.272;6.554;2022-11-20T04:02:39;18.30;;;16.40;;
4700;SDS011;8724;51.272;6.554;2022-11-20T04:05:08;17.00;;;15.40;;
4700;SDS011;8724;51.272;6.554;2022-11-20T04:07:39;16.43;;;14.77;;
4700;SDS011;8724;51.272;6.554;2022-11-20T04:10:10;17.63;;;15.83;;
4700;SDS011;8724;51.272;6.554;2022-11-20T04:12:38;17.30;;;15.60;;
4700;SDS011;8724;51.272;6.554;2022-11-20T04:15:06;17.67;;;15.87;;
4700;SDS011;8724;51.272;6.554;2022-11-20T04:17:35;24.60;;;16.10;;
4700;SDS011;8724;51.272;6.554;2022-11-20T04:20:06;19.27;;;17.23;;
4700;SDS011;8724;51.272;6.554;2022-11-20T04:22:34;19.43;;;16.47;;
4700;SDS011;8724;51.272;6.554;2022-11-20T04:25:04;18.40;;;16.60;;
4700;SDS011;8724;51.272;6.554;2022-11-20T04:27:33;18.80;;;16.93;;
4700;SDS011;8724;51.272;6.554;2022-11-20T04:30:01;18.80;;;16.70;;
4700;SDS011;8724;51.272;6.554;2022-11-20T04:32:30;19.33;;;16.60;;
4700;SDS011;8724;51.272;6.554;2022-11-20T04:34:58;18.63;;;16.83;;
4700;SDS011;8724;51.272;6.554;2022-11-20T04:37:26;18.83;;;16.90;;
4700;SDS011;8724;51.272;6.554;2022-11-20T04:39:54;17.23;;;15.47;;
4700;SDS011;8724;51.272;6.554;2022-11-20T04:42:27;17.07;;;15.30;;
4700;SDS011;8724;51.272;6.554;2022-11-20T04:44:58;17.03;;;15.30;;
4700;SDS011;8724;51.272;6.554;2022-11-20T04:47:26;18.03;;;14.73;;
4700;SDS011;8724;51.272;6.554;2022-11-20T04:49:56;15.70;;;14.20;;
4700;SDS011;8724;51.272;6.554;2022-11-20T04:52:24;16.20;;;14.53;;
4700;SDS011;8724;51.272;6.554;2022-11-20T04:54:52;19.23;;;15.37;;
4700;SDS011;8724;51.272;6.554;2022-11-20T04:57:23;16.60;;;14.90;;
4700;SDS011;8724;51.272;6.554;2022-11-20T04:59:52;17.70;;;15.87;;
4700;SDS011;8724;51.272;6.554;2022-11-20T05:02:24;16.40;;;14.80;;
4700;SDS011;8724;51.272;6.554;2022-11-20T05:04:52;16.23;;;14.60;;
4700;SDS011;8724;51.272;6.554;2022-11-20T05:07:20;16.60;;;15.00;;
4700;SDS011;8724;51.272;6.554;2022-11-20T05:09:48;15.67;;;14.17;;
4700;SDS011;8724;51.272;6.554;2022-11-20T05:12:17;16.80;;;15.00;;
4700;SDS011;8724;51.272;6.554;2022-11-20T05:14:45;16.20;;;14.47;;
4700;SDS011;8724;51.272;6.554;2022-11-20T05:17:15;16.03;;;14.33;;
4700;SDS011;8724;51.272;6.554;2022-11-20T05:19:45;16.63;;;14.60;;
4700;SDS011;8724;51.272;6.554;2022-11-20T05:22:18;15.43;;;13.83;;
4700;SDS011;8724;51.272;6.554;2022-11-20T05:24:49;17.90;;;14.77;;
4700;SDS011;8724;51.272;6.554;2022-11-20T05:27:19;16.17;;;14.57;;
4700;SDS011;8724;51.272;6.554;2022-11-20T05:29:47;16.83;;;15.13;;
4700;SDS011;8724;51.272;6.554;2022-11-20T05:32:16;15.90;;;14.13;;
4700;SDS011;8724;51.272;6.554;2022-11-20T05:34:51;16.33;;;14.83;;
4700;SDS011;8724;51.272;6.554;2022-11-20T05:37:19;15.30;;;13.70;;
4700;SDS011;8724;51.272;6.554;2022-11-20T05:39:48;15.97;;;14.37;;
4700;SDS011;8724;51.272;6.554;2022-11-20T05:42:16;32.70;;;28.90;;
4700;SDS011;8724;51.272;6.554;2022-11-20T05:44:59;33.93;;;28.20;;
4700;SDS011;8724;51.272;6.554;2022-11-20T05:47:32;25.43;;;20.97;;
4700;SDS011;8724;51.272;6.554;2022-11-20T05:50:01;21.90;;;16.30;;
4700;SDS011;8724;51.272;6.554;2022-11-20T05:52:29;17.80;;;14.57;;
4700;SDS011;8724;51.272;6.554;2022-11-20T05:54:58;15.70;;;14.20;;
4700;SDS011;8724;51.272;6.554;2022-11-20T05:57:26;16.97;;;14.47;;
4700;SDS011;8724;51.272;6.554;2022-11-20T05:59:54;15.07;;;13.40;;
4700;SDS011;8724;51.272;6.554;2022-11-20T06:02:28;15.13;;;13.63;;
4700;SDS011;8724;51.272;6.554;2022-11-20T06:04:58;17.07;;;15.17;;
4700;SDS011;8724;51.272;6.554;2022-11-20T06:07:26;15.40;;;13.90;;
4700;SDS011;8724;51.272;6.554;2022-11-20T06:09:57;15.53;;;14.00;;
4700;SDS011;8724;51.272;6.554;2022-11-20T06:12:28;16.00;;;14.50;;
4700;SDS011;8724;51.272;6.554;2022-11-20T06:15:01;15.87;;;14.30;;
4700;SDS011;8724;51.272;6.554;2022-11-20T06:17:29;16.07;;;14.40;;
4700;SDS011;8724;51.272;6.554;2022-11-20T06:19:58;16.83;;;14.53;;
4700;SDS011;8724;51.272;6.554;2022-11-20T06:22:27;14.80;;;13.30;;
4700;SDS011;8724;51.272;6.554;2022-11-20T06:24:55;19.33;;;17.37;;
4700;SDS011;8724;51.272;6.554;2022-11-20T06:27:25;18.13;;;16.07;;
4700;SDS011;8724;51.272;6.554;2022-11-20T06:29:54;17.53;;;15.73;;
4700;SDS011;8724;51.272;6.554;2022-11-20T06:32:22;16.70;;;15.07;;
4700;SDS011;8724;51.272;6.554;2022-11-20T06:34:51;17.83;;;16.03;;
4700;SDS011;8724;51.272;6.554;2022-11-20T06:37:20;17.17;;;15.47;;
4700;SDS011;8724;51.272;6.554;2022-11-20T06:39:48;17.20;;;15.50;;
4700;SDS011;8724;51.272;6.554;2022-11-20T06:42:17;16.10;;;14.43;;
4700;SDS011;8724;51.272;6.554;2022-11-20T06:44:47;16.60;;;14.90;;
4700;SDS011;8724;51.272;6.554;2022-11-20T06:47:16;16.77;;;14.83;;
4700;SDS011;8724;51.272;6.554;2022-11-20T06:49:44;15.70;;;14.10;;
4700;SDS011;8724;51.272;6.554;2022-11-20T06:52:12;39.20;;;34.30;;
4700;SDS011;8724;51.272;6.554;2022-11-20T06:54:43;40.40;;;32.67;;
4700;SDS011;8724;51.272;6.554;2022-11-20T06:57:11;20.37;;;18.10;;
4700;SDS011;8724;51.272;6.554;2022-11-20T06:59:39;19.77;;;16.77;;
4700;SDS011;8724;51.272;6.554;2022-11-20T07:02:09;17.53;;;15.50;;
4700;SDS011;8724;51.272;6.554;2022-11-20T07:04:38;16.17;;;14.63;;
4700;SDS011;8724;51.272;6.554;2022-11-20T07:07:06;16.53;;;14.87;;
4700;SDS011;8724;51.272;6.554;2022-11-20T07:09:34;20.10;;;15.83;;
4700;SDS011;8724;51.272;6.554;2022-11-20T07:12:04;16.20;;;14.57;;
4700;SDS011;8724;51.272;6.554;2022-11-20T07:14:32;16.10;;;14.40;;
4700;SDS011;8724;51.272;6.554;2022-11-20T07:17:01;16.20;;;14.60;;
4700;SDS011;8724;51.272;6.554;2022-11-20T07:19:29;17.17;;;15.37;;
4700;SDS011;8724;51.272;6.554;2022-11-20T07:21:57;17.50;;;13.77;;
4700;SDS011;8724;51.272;6.554;2022-11-20T07:24:25;16.33;;;14.73;;
4700;SDS011;8724;51.272;6.554;2022-11-20T07:26:54;17.07;;;15.20;;
4700;SDS011;8724;51.272;6.554;2022-11-20T07:29:23;16.10;;;14.40;;
4700;SDS011;8724;51.272;6.554;2022-11-20T07:31:52;19.70;;;14.00;;
4700;SDS011;8724;51.272;6.554;2022-11-20T07:34:21;15.47;;;13.87;;
4700;SDS011;8724;51.272;6.554;2022-11-20T07:36:52;18.00;;;14.90;;
4700;SDS011;8724;51.272;6.554;2022-11-20T07:39:20;14.83;;;13.33;;
4700;SDS011;8724;51.272;6.554;2022-11-20T07:41:49;108.67;;;82.23;;
4700;SDS011;8724;51.272;6.554;2022-11-20T07:44:17;68.70;;;53.40;;
4700;SDS011;8724;51.272;6.554;2022-11-20T07:46:46;35.70;;;29.80;;
4700;SDS011;8724;51.272;6.554;2022-11-20T07:49:15;26.93;;;22.90;;
4700;SDS011;8724;51.272;6.554;2022-11-20T07:51:43;24.17;;;18.87;;
4700;SDS011;8724;51.272;6.554;2022-11-20T07:54:17;16.87;;;15.13;;
4700;SDS011;8724;51.272;6.554;2022-11-20T07:56:45;16.23;;;14.67;;
4700;SDS011;8724;51.272;6.554;2022-11-20T07:59:14;15.40;;;13.90;;
4700;SDS011;8724;51.272;6.554;2022-11-20T08:01:42;15.30;;;13.77;;
4700;SDS011;8724;51.272;6.554;2022-11-20T08:04:12;14.10;;;12.70;;
4700;SDS011;8724;51.272;6.554;2022-11-20T08:06:42;16.33;;;14.07;;
4700;SDS011;8724;51.272;6.554;2022-11-20T08:09:10;17.03;;;15.23;;
4700;SDS011;8724;51.272;6.554;2022-11-20T08:11:39;16.87;;;14.97;;
4700;SDS011;8724;51.272;6.554;2022-11-20T08:14:25;16.50;;;14.70;;
4700;SDS011;8724;51.272;6.554;2022-11-20T08:16:56;17.77;;;15.87;;
4700;SDS011;8724;51.272;6.554;2022-11-20T08:19:26;16.33;;;14.70;;
4700;SDS011;8724;51.272;6.554;2022-11-20T08:21:54;15.60;;;14.00;;
4700;SDS011;8724;51.272;6.554;2022-11-20T08:24:23;16.30;;;14.60;;
4700;SDS011;8724;51.272;6.554;2022-11-20T08:26:52;15.80;;;14.20;;
4700;SDS011;8724;51.272;6.554;2022-11-20T08:29:20;17.40;;;14.90;;
4700;SDS011;8724;51.272;6.554;2022-11-20T08:31:49;17.50;;;13.70;;
4700;SDS011;8724;51.272;6.554;2022-11-20T08:34:17;19.67;;;15.77;;
4700;SDS011;8724;51.272;6.554;2022-11-20T08:36:47;20.20;;;16.37;;
4700;SDS011;8724;51.272;6.554;2022-11-20T08:39:15;16.43;;;14.73;;
4700;SDS011;8724;51.272;6.554;2022-11-20T08:41:44;18.17;;;16.03;;
4700;SDS011;8724;51.272;6.554;2022-11-20T08:44:12;18.17;;;15.40;;
4700;SDS011;8724;51.272;6.554;2022-11-20T08:46:41;17.37;;;15.57;;
4700;SDS011;8724;51.272;6.554;2022-11-20T08:49:12;18.00;;;15.93;;
4700;SDS011;8724;51.272;6.554;2022-11-20T08:51:42;17.77;;;15.63;;
4700;SDS011;8724;51.272;6.554;2022-11-20T08:54:11;55.60;;;43.10;;
4700;SDS011;8724;51.272;6.554;2022-11-20T08:56:39;53.07;;;42.27;;
4700;SDS011;8724;51.272;6.554;2022-11-20T08:59:12;40.47;;;30.97;;
4700;SDS011;8724;51.272;6.554;2022-11-20T09:02:02;25.67;;;21.27;;
4700;SDS011;8724;51.272;6.554;2022-11-20T09:04:30;20.47;;;17.07;;
4700;SDS011;8724;51.272;6.554;2022-11-20T09:06:59;18.77;;;16.33;;
4700;SDS011;8724;51.272;6.554;2022-11-20T09:09:29;17.40;;;14.83;;
4700;SDS011;8724;51.272;6.554;2022-11-20T09:12:00;16.53;;;14.70;;
4700;SDS011;8724;51.272;6.554;2022-11-20T09:14:28;15.83;;;14.13;;
4700;SDS011;8724;51.272;6.554;2022-11-20T09:16:56;17.67;;;14.47;;
4700;SDS011;8724;51.272;6.554;2022-11-20T09:19:25;17.67;;;14.10;;
4700;SDS011;8724;51.272;6.554;2022-11-20T09:22:05;15.33;;;13.80;;
4700;SDS011;8724;51.272;6.554;2022-11-20T09:24:36;14.53;;;13.03;;
4700;SDS011;8724;51.272;6.554;2022-11-20T09:27:04;15.40;;;13.90;;
4700;SDS011;8724;51.272;6.554;2022-11-20T09:29:40;14.97;;;13.47;;
4700;SDS011;8724;51.272;6.554;2022-11-20T09:32:08;15.17;;;13.57;;
4700;SDS011;8724;51.272;6.554;2022-11-20T09:34:37;16.63;;;14.83;;
4700;SDS011;8724;51.272;6.554;2022-11-20T09:37:05;17.13;;;15.00;;
4700;SDS011;8724;51.272;6.554;2022-11-20T09:39:33;17.23;;;14.30;;
4700;SDS011;8724;51.272;6.554;2022-11-20T09:42:13;17.63;;;14.03;;
4700;SDS011;8724;51.272;6.554;2022-11-20T09:45:02;18.00;;;15.30;;
4700;SDS011;8724;51.272;6.554;2022-11-20T09:47:44;22.07;;;17.20;;
4700;SDS011;8724;51.272;6.554;2022-11-20T09:50:23;24.10;;;18.33;;
4700;SDS011;8724;51.272;6.554;2022-11-20T09:53:00;22.00;;;15.90;;
4700;SDS011;8724;51.272;6.554;2022-11-20T09:55:40;23.20;;;17.00;;
4700;SDS011;8724;51.272;6.554;2022-11-20T09:58:12;23.60;;;17.97;;
4700;SDS011;8724;51.272;6.554;2022-11-20T10:00:49;28.20;;;18.73;;
4700;SDS011;8724;51.272;6.554;2022-11-20T10:03:19;28.47;;;20.17;;
4700;SDS011;8724;51.272;6.554;2022-11-20T10:05:58;33.43;;;23.23;;
4700;SDS011;8724;51.272;6.554;2022-11-20T10:08:30;28.00;;;20.23;;
4700;SDS011;8724;51.272;6.554;2022-11-20T10:11:06;30.83;;;21.03;;
4700;SDS011;8724;51.272;6.554;2022-11-20T10:13:45;30.60;;;22.03;;
4700;SDS011;8724;51.272;6.554;2022-11-20T10:16:24;27.80;;;22.30;;
4700;SDS011;8724;51.272;6.554;2022-11-20T10:19:00;29.00;;;21.83;;
4700;SDS011;8724;51.272;6.554;2022-11-20T10:21:38;27.23;;;19.27;;
4700;SDS011;8724;51.272;6.554;2022-11-20T10:27:15;28.27;;;21.50;;
4700;SDS011;8724;51.272;6.554;2022-11-20T10:29:59;110.23;;;76.37;;
4700;SDS011;8724;51.272;6.554;2022-11-20T10:32:31;144.97;;;103.07;;
4700;SDS011;8724;51.272;6.554;2022-11-20T10:35:06;82.80;;;61.03;;
4700;SDS011;8724;51.272;6.554;2022-11-20T10:37:44;61.43;;;41.40;;
4700;SDS011;8724;51.272;6.554;2022-11-20T10:40:18;40.20;;;29.50;;
4700;SDS011;8724;51.272;6.554;2022-11-20T10:42:52;34.23;;;25.77;;
4700;SDS011;8724;51.272;6.554;2022-11-20T10:45:38;34.53;;;21.13;;
4700;SDS011;8724;51.272;6.554;2022-11-20T10:48:15;28.10;;;20.13;;
4700;SDS011;8724;51.272;6.554;2022-11-20T10:50:52;31.93;;;20.17;;
4700;SDS011;8724;51.272;6.554;2022-11-20T10:53:31;22.90;;;20.00;;
4700;SDS011;8724;51.272;6.554;2022-11-20T10:56:14;25.00;;;19.80;;
4700;SDS011;8724;51.272;6.554;2022-11-20T10:58:49;25.90;;;20.23;;
4700;SDS011;8724;51.272;6.554;2022-11-20T11:01:28;23.50;;;17.93;;
4700;SDS011;8724;51.272;6.554;2022-11-20T11:03:57;26.17;;;19.80;;
4700;SDS011;8724;51.272;6.554;2022-11-20T11:06:28;27.07;;;18.37;;
4700;SDS011;8724;51.272;6.554;2022-11-20T11:09:04;27.53;;;18.73;;
4700;SDS011;8724;51.272;6.554;2022-11-20T11:11:39;26.20;;;19.57;;
4700;SDS011;8724;51.272;6.554;2022-11-20T11:14:08;25.67;;;18.90;;
4700;SDS011;8724;51.272;6.554;2022-11-20T11:16:49;21.90;;;17.97;;
4700;SDS011;8724;51.272;6.554;2022-11-20T11:19:19;24.27;;;16.63;;
4700;SDS011;8724;51.272;6.554;2022-11-20T11:21:49;24.10;;;17.20;;
4700;SDS011;8724;51.272;6.554;2022-11-20T11:24:22;23.47;;;19.67;;
4700;SDS011;8724;51.272;6.554;2022-11-20T11:27:11;24.37;;;17.70;;
4700;SDS011;8724;51.272;6.554;2022-11-20T11:29:45;22.30;;;18.00;;
4700;SDS011;8724;51.272;6.554;2022-11-20T11:32:17;24.83;;;18.03;;
4700;SDS011;8724;51.272;6.554;2022-11-20T11:34:58;22.07;;;15.87;;
4700;SDS011;8724;51.272;6.554;2022-11-20T11:37:32;20.77;;;16.80;;
4700;SDS011;8724;51.272;6.554;2022-11-20T11:40:03;24.60;;;16.80;;
4700;SDS011;8724;51.272;6.554;2022-11-20T11:42:52;32.57;;;24.63;;
4700;SDS011;8724;51.272;6.554;2022-11-20T11:45:23;66.83;;;49.17;;
4700;SDS011;8724;51.272;6.554;2022-11-20T11:48:01;73.50;;;52.83;;
4700;SDS011;8724;51.272;6.554;2022-11-20T11:50:31;51.27;;;37.53;;
4700;SDS011;8724;51.272;6.554;2022-11-20T11:53:03;35.90;;;27.67;;
4700;SDS011;8724;51.272;6.554;2022-11-20T11:55:40;27.57;;;20.97;;
4700;SDS011;8724;51.272;6.554;2022-11-20T11:58:14;21.50;;;17.63;;
4700;SDS011;8724;51.272;6.554;2022-11-20T12:00:50;19.60;;;16.27;;
4700;SDS011;8724;51.272;6.554;2022-11-20T12:03:24;23.80;;;16.40;;
4700;SDS011;8724;51.272;6.554;2022-11-20T12:05:57;19.10;;;15.30;;
4700;SDS011;8724;51.272;6.554;2022-11-20T12:08:30;18.20;;;15.70;;
4700;SDS011;8724;51.272;6.554;2022-11-20T12:11:06;21.50;;;17.70;;
4700;SDS011;8724;51.272;6.554;2022-11-20T12:13:44;20.97;;;16.50;;
4700;SDS011;8724;51.272;6.554;2022-11-20T12:16:17;24.20;;;16.87;;
4700;SDS011;8724;51.272;6.554;2022-11-20T12:18:49;19.73;;;16.90;;
4700;SDS011;8724;51.272;6.554;2022-11-20T12:21:20;22.10;;;17.27;;
4700;SDS011;8724;51.272;6.554;2022-11-20T12:24:03;23.10;;;18.70;;
4700;SDS011;8724;51.272;6.554;2022-11-20T12:26:56;20.73;;;18.50;;
4700;SDS011;8724;51.272;6.554;2022-11-20T12:29:36;24.83;;;20.27;;
4700;SDS011;8724;51.272;6.554;2022-11-20T12:35:11;27.33;;;20.70;;
4700;SDS011;8724;51.272;6.554;2022-11-20T12:38:07;23.73;;;18.80;;
4700;SDS011;8724;51.272;6.554;2022-11-20T12:40:53;22.27;;;18.00;;
4700;SDS011;8724;51.272;6.554;2022-11-20T12:43:24;20.77;;;18.20;;
4700;SDS011;8724;51.272;6.554;2022-11-20T12:46:18;23.67;;;18.90;;
4700;SDS011;8724;51.272;6.554;2022-11-20T12:48:57;41.70;;;29.97;;
4700;SDS011;8724;51.272;6.554;2022-11-20T12:51:47;76.27;;;54.77;;
4700;SDS011;8724;51.272;6.554;2022-11-20T12:54:34;55.47;;;38.97;;
4700;SDS011;8724;51.272;6.554;2022-11-20T12:57:15;35.63;;;28.77;;
4700;SDS011;8724;51.272;6.554;2022-11-20T13:02:46;22.13;;;18.20;;
4700;SDS011;8724;51.272;6.554;2022-11-20T13:05:41;18.53;;;14.70;;
4700;SDS011;8724;51.272;6.554;2022-11-20T13:08:21;19.63;;;15.07;;
4700;SDS011;8724;51.272;6.554;2022-11-20T13:10:54;17.70;;;15.00;;
4700;SDS011;8724;51.272;6.554;2022-11-20T13:13:30;20.23;;;14.60;;
4700;SDS011;8724;51.272;6.554;2022-11-20T13:16:04;17.30;;;14.50;;
4700;SDS011;8724;51.272;6.554;2022-11-20T13:18:40;19.60;;;15.17;;
4700;SDS011;8724;51.272;6.554;2022-11-20T13:21:15;22.87;;;16.50;;
4700;SDS011;8724;51.272;6.554;2022-11-20T13:23:46;18.50;;;14.57;;
4700;SDS011;8724;51.272;6.554;2022-11-20T13:26:16;19.83;;;15.63;;
4700;SDS011;8724;51.272;6.554;2022-11-20T13:28:47;19.90;;;15.20;;
4700;SDS011;8724;51.272;6.554;2022-11-20T13:31:31;20.20;;;15.50;;
4700;SDS011;8724;51.272;6.554;2022-11-20T13:34:04;23.70;;;16.30;;
4700;SDS011;8724;51.272;6.554;2022-11-20T13:36:34;20.10;;;16.13;;
4700;SDS011;8724;51.272;6.554;2022-11-20T13:39:04;23.23;;;17.10;;
4700;SDS011;8724;51.272;6.554;2022-11-20T13:41:33;19.57;;;14.97;;
4700;SDS011;8724;51.272;6.554;2022-11-20T13:44:05;19.83;;;15.23;;
4700;SDS011;8724;51.272;6.554;2022-11-20T13:46:42;20.80;;;15.20;;
4700;SDS011;8724;51.272;6.554;2022-11-20T13:49:17;22.10;;;15.80;;
4700;SDS011;8724;51.272;6.554;2022-11-20T13:51:50;16.30;;;13.80;;
4700;SDS011;8724;51.272;6.554;2022-11-20T13:54:40;17.03;;;14.00;;
4700;SDS011;8724;51.272;6.554;2022-11-20T13:57:33;19.70;;;15.53;;
4700;SDS011;8724;51.272;6.554;2022-11-20T14:00:12;18.87;;;15.07;;
4700;SDS011;8724;51.272;6.554;2022-11-20T14:02:43;21.10;;;16.23;;
4700;SDS011;8724;51.272;6.554;2022-11-20T14:05:17;20.87;;;15.83;;
4700;SDS011;8724;51.272;6.554;2022-11-20T14:07:49;19.63;;;15.50;;
4700;SDS011;8724;51.272;6.554;2022-11-20T14:10:21;20.87;;;15.47;;
4700;SDS011;8724;51.272;6.554;2022-11-20T14:12:57;19.63;;;15.60;;
4700;SDS011;8724;51.272;6.554;2022-11-20T14:15:27;19.80;;;15.73;;
4700;SDS011;8724;51.272;6.554;2022-11-20T14:17:57;22.90;;;16.33;;
4700;SDS011;8724;51.272;6.554;2022-11-20T14:20:27;22.27;;;16.60;;
4700;SDS011;8724;51.272;6.554;2022-11-20T14:22:57;20.57;;;15.60;;
4700;SDS011;8724;51.272;6.554;2022-11-20T14:25:31;21.77;;;17.17;;
4700;SDS011;8724;51.272;6.554;2022-11-20T14:28:00;18.97;;;16.10;;
4700;SDS011;8724;51.272;6.554;2022-11-20T14:30:36;21.27;;;16.67;;
4700;SDS011;8724;51.272;6.554;2022-11-20T14:33:10;37.30;;;31.20;;
4700;SDS011;8724;51.272;6.554;2022-11-20T14:35:40;125.13;;;87.37;;
4700;SDS011;8724;51.272;6.554;2022-11-20T14:38:13;88.47;;;64.50;;
4700;SDS011;8724;51.272;6.554;2022-11-20T14:40:44;65.33;;;43.50;;
4700;SDS011;8724;51.272;6.554;2022-11-20T14:43:17;41.03;;;30.23;;
4700;SDS011;8724;51.272;6.554;2022-11-20T14:45:49;30.20;;;23.57;;
4700;SDS011;8724;51.272;6.554;2022-11-20T14:48:24;30.97;;;21.07;;
4700;SDS011;8724;51.272;6.554;2022-11-20T14:50:57;25.03;;;19.77;;
4700;SDS011;8724;51.272;6.554;2022-11-20T14:53:26;22.20;;;17.80;;
4700;SDS011;8724;51.272;6.554;2022-11-20T14:55:56;23.83;;;16.27;;
4700;SDS011;8724;51.272;6.554;2022-11-20T14:58:26;22.43;;;16.67;;
4700;SDS011;8724;51.272;6.554;2022-11-20T15:00:57;21.13;;;16.70;;
4700;SDS011;8724;51.272;6.554;2022-11-20T15:03:33;22.60;;;17.27;;
4700;SDS011;8724;51.272;6.554;2022-11-20T15:06:02;21.17;;;17.27;;
4700;SDS011;8724;51.272;6.554;2022-11-20T15:08:31;21.70;;;16.57;;
4700;SDS011;8724;51.272;6.554;2022-11-20T15:11:01;23.90;;;18.00;;
4700;SDS011;8724;51.272;6.554;2022-11-20T15:13:30;20.77;;;16.50;;
4700;SDS011;8724;51.272;6.554;2022-11-20T15:16:00;23.40;;;16.90;;
4700;SDS011;8724;51.272;6.554;2022-11-20T15:18:31;21.67;;;16.67;;
4700;SDS011;8724;51.272;6.554;2022-11-20T15:21:01;20.83;;;16.20;;
4700;SDS011;8724;51.272;6.554;2022-11-20T15:23:31;18.77;;;16.00;;
4700;SDS011;8724;51.272;6.554;2022-11-20T15:26:01;20.37;;;16.60;;
4700;SDS011;8724;51.272;6.554;2022-11-20T15:28:32;24.13;;;18.10;;